createdAt,value
2018-08-02T00:00:03.150Z,986
2018-08-02T00:01:04.627Z,986.4
2018-08-02T00:02:05.827Z,986.7
2018-08-02T00:03:07.003Z,986.9
2018-08-02T00:04:08.171Z,987
2018-08-02T00:05:09.387Z,986.9
2018-08-02T00:06:10.642Z,986.9
2018-08-02T00:07:14.744Z,986.9
2018-08-02T00:08:16.127Z,987
2018-08-02T00:09:20.204Z,987
2018-08-02T00:10:21.446Z,986.9
2018-08-02T00:11:25.573Z,986.6
2018-08-02T00:12:26.733Z,986
2018-08-02T00:13:28.605Z,985.9
2018-08-02T00:14:32.121Z,985.9
2018-08-02T00:15:33.349Z,985.8
2018-08-02T00:16:35.928Z,985.8
2018-08-02T00:17:42.238Z,985.7
2018-08-02T00:18:43.403Z,985.6
2018-08-02T00:19:44.600Z,985.4
2018-08-02T00:20:48.438Z,985.4
2018-08-02T00:21:49.616Z,985.3
2018-08-02T00:22:50.916Z,985.2
2018-08-02T00:23:52.088Z,985
2018-08-02T00:24:53.292Z,985.2
2018-08-02T00:25:54.542Z,985.2
2018-08-02T00:26:55.714Z,985.2
2018-08-02T00:27:56.879Z,985.2
2018-08-02T00:29:00.452Z,985.2
2018-08-02T00:30:01.674Z,985.3
2018-08-02T00:31:02.898Z,985.4
2018-08-02T00:32:04.374Z,985.3
2018-08-02T00:33:05.564Z,985.3
2018-08-02T00:34:06.735Z,985.3
2018-08-02T00:35:09.236Z,985.5
2018-08-02T00:36:10.511Z,985.5
2018-08-02T00:37:11.692Z,985.6
2018-08-02T00:38:12.857Z,985.7
2018-08-02T00:39:14.032Z,986.1
2018-08-02T00:40:15.188Z,985.9
2018-08-02T00:41:16.434Z,985.8
2018-08-02T00:42:18.080Z,985.9
2018-08-02T00:43:21.882Z,985.6
2018-08-02T00:44:28.951Z,985.6
2018-08-02T00:45:30.139Z,985.8
2018-08-02T00:46:31.314Z,986.1
2018-08-02T00:47:32.506Z,986.5
2018-08-02T00:48:33.668Z,986.4
2018-08-02T00:49:34.909Z,986.5
2018-08-02T00:50:36.073Z,986.5
2018-08-02T00:51:37.294Z,986.1
2018-08-02T00:52:38.482Z,986.3
2018-08-02T00:53:39.679Z,986.5
2018-08-02T00:54:40.818Z,986.5
2018-08-02T00:55:45.360Z,986.4
2018-08-02T00:56:49.022Z,986.3
2018-08-02T00:57:50.190Z,986.3
2018-08-02T00:58:51.406Z,986.3
2018-08-02T00:59:52.562Z,986.3
2018-08-02T01:00:53.753Z,986.2
2018-08-02T01:01:54.987Z,985.7
2018-08-02T01:02:56.141Z,985.3
2018-08-02T01:03:57.330Z,985.3
2018-08-02T01:04:58.487Z,985.3
2018-08-02T01:05:59.675Z,985.2
2018-08-02T01:07:01.951Z,985.2
2018-08-02T01:08:05.880Z,985.1
2018-08-02T01:09:07.350Z,985.2
2018-08-02T01:10:08.514Z,985.2
2018-08-02T01:11:09.746Z,985.3
2018-08-02T01:12:11.002Z,985.5
2018-08-02T01:13:12.166Z,985.3
2018-08-02T01:14:13.633Z,985.2
2018-08-02T01:15:17.282Z,985.3
2018-08-02T01:16:19.370Z,985.2
2018-08-02T01:17:20.565Z,985.5
2018-08-02T01:18:21.763Z,985.6
2018-08-02T01:19:22.960Z,985.7
2018-08-02T01:20:24.193Z,985.7
2018-08-02T01:21:25.411Z,985.2
2018-08-02T01:22:26.648Z,985.5
2018-08-02T01:23:27.894Z,985.8
2018-08-02T01:24:29.074Z,985.1
2018-08-02T01:25:30.279Z,985.2
2018-08-02T01:26:31.522Z,985.2
2018-08-02T01:27:32.764Z,985.2
2018-08-02T01:28:33.954Z,985.2
2018-08-02T01:29:35.127Z,985.1
2018-08-02T01:30:36.279Z,985.2
2018-08-02T01:31:38.769Z,985.2
2018-08-02T01:32:39.986Z,985.3
2018-08-02T01:33:41.166Z,985.3
2018-08-02T01:34:42.451Z,985.3
2018-08-02T01:35:43.613Z,985.2
2018-08-02T01:36:44.759Z,985.3
2018-08-02T01:37:46.047Z,985.4
2018-08-02T01:38:47.222Z,985.2
2018-08-02T01:39:48.398Z,985.2
2018-08-02T01:40:49.770Z,985.3
2018-08-02T01:41:50.958Z,985.2
2018-08-02T01:42:52.350Z,985.2
2018-08-02T01:43:53.519Z,985.1
2018-08-02T01:44:54.667Z,985.2
2018-08-02T01:45:55.880Z,985.1
2018-08-02T01:46:57.053Z,985.1
2018-08-02T01:47:58.309Z,985.1
2018-08-02T01:48:59.453Z,985.1
2018-08-02T01:50:00.701Z,985.3
2018-08-02T01:51:01.884Z,985.4
2018-08-02T01:52:03.088Z,985.3
2018-08-02T01:53:04.371Z,985.2
2018-08-02T01:54:05.611Z,985.5
2018-08-02T01:55:06.788Z,985.4
2018-08-02T01:56:07.976Z,985.9
2018-08-02T01:57:09.174Z,985.9
2018-08-02T01:58:10.400Z,985.7
2018-08-02T01:59:11.572Z,985.6
2018-08-02T02:00:12.742Z,985.1
2018-08-02T02:01:14.190Z,985.4
2018-08-02T02:02:15.442Z,985.1
2018-08-02T02:03:19.214Z,985.1
2018-08-02T02:04:20.387Z,985.2
2018-08-02T02:05:21.554Z,985.4
2018-08-02T02:06:22.724Z,985.5
2018-08-02T02:07:23.903Z,985.4
2018-08-02T02:08:25.105Z,985.6
2018-08-02T02:09:26.335Z,985.5
2018-08-02T02:10:27.506Z,985.9
2018-08-02T02:11:29.674Z,985.7
2018-08-02T02:12:30.838Z,985.8
2018-08-02T02:13:32.066Z,985.7
2018-08-02T02:14:33.441Z,986.1
2018-08-02T02:15:35.193Z,986.2
2018-08-02T02:16:36.394Z,986.4
2018-08-02T02:17:37.594Z,985.4
2018-08-02T02:18:42.864Z,986
2018-08-02T02:19:44.336Z,985.8
2018-08-02T02:20:45.562Z,985.9
2018-08-02T02:21:46.739Z,986.1
2018-08-02T02:22:47.910Z,986.3
2018-08-02T02:23:49.108Z,986.4
2018-08-02T02:24:50.274Z,986.1
2018-08-02T02:25:51.477Z,985.5
2018-08-02T02:26:52.654Z,985.5
2018-08-02T02:27:53.823Z,985.6
2018-08-02T02:28:55.298Z,985.6
2018-08-02T02:29:56.539Z,985.8
2018-08-02T02:30:57.691Z,986
2018-08-02T02:31:58.894Z,985.6
2018-08-02T02:33:02.162Z,986
2018-08-02T02:34:03.390Z,986
2018-08-02T02:35:04.609Z,986.2
2018-08-02T02:36:05.809Z,986.3
2018-08-02T02:37:07.248Z,986.2
2018-08-02T02:38:08.424Z,986.4
2018-08-02T02:39:09.625Z,986.6
2018-08-02T02:40:10.787Z,986.4
2018-08-02T02:41:11.978Z,986.3
2018-08-02T02:42:13.145Z,986.1
2018-08-02T02:43:14.336Z,986.3
2018-08-02T02:44:16.211Z,985.9
2018-08-02T02:45:17.382Z,986
2018-08-02T02:46:18.562Z,985.5
2018-08-02T02:47:19.743Z,985.7
2018-08-02T02:48:20.937Z,985.9
2018-08-02T02:49:22.136Z,985.8
2018-08-02T02:50:23.333Z,985.8
2018-08-02T02:51:24.519Z,985.2
2018-08-02T02:52:25.721Z,985.5
2018-08-02T02:53:26.955Z,985.5
2018-08-02T02:54:28.156Z,985.5
2018-08-02T02:55:29.322Z,985.8
2018-08-02T02:56:30.502Z,986.1
2018-08-02T02:57:31.668Z,985.9
2018-08-02T02:58:32.873Z,985.7
2018-08-02T02:59:34.272Z,986.2
2018-08-02T03:00:35.444Z,986.2
2018-08-02T03:01:36.613Z,986.4
2018-08-02T03:02:37.812Z,985.8
2018-08-02T03:03:38.970Z,985.8
2018-08-02T03:04:40.164Z,986.2
2018-08-02T03:05:41.353Z,986.1
2018-08-02T03:06:43.065Z,985.7
2018-08-02T03:07:44.281Z,985.9
2018-08-02T03:08:45.850Z,986
2018-08-02T03:09:47.079Z,985.9
2018-08-02T03:10:48.255Z,986.1
2018-08-02T03:11:49.422Z,986.2
2018-08-02T03:12:50.630Z,985.7
2018-08-02T03:13:52.122Z,985.7
2018-08-02T03:14:53.959Z,986.3
2018-08-02T03:15:55.130Z,986.6
2018-08-02T03:16:56.313Z,986.3
2018-08-02T03:17:57.516Z,986.6
2018-08-02T03:18:58.678Z,986.1
2018-08-02T03:19:59.933Z,986.4
2018-08-02T03:21:01.135Z,986.5
2018-08-02T03:22:02.314Z,986.5
2018-08-02T03:23:03.526Z,985.9
2018-08-02T03:24:04.723Z,985.9
2018-08-02T03:25:08.895Z,985.9
2018-08-02T03:26:10.089Z,986
2018-08-02T03:27:11.330Z,986
2018-08-02T03:28:12.513Z,986
2018-08-02T03:29:13.707Z,986
2018-08-02T03:30:14.984Z,985.9
2018-08-02T03:31:17.232Z,986
2018-08-02T03:32:18.453Z,986
2018-08-02T03:33:23.000Z,986
2018-08-02T03:34:24.193Z,986.1
2018-08-02T03:35:25.392Z,986
2018-08-02T03:36:26.610Z,986.1
2018-08-02T03:37:28.102Z,986.2
2018-08-02T03:38:29.282Z,986.5
2018-08-02T03:39:30.442Z,986.8
2018-08-02T03:40:31.630Z,986.9
2018-08-02T03:41:32.812Z,986.5
2018-08-02T03:42:37.194Z,986.5
2018-08-02T03:43:38.358Z,986.3
2018-08-02T03:44:39.539Z,986.8
2018-08-02T03:45:40.728Z,986.5
2018-08-02T03:46:41.937Z,986.5
2018-08-02T03:47:43.691Z,986.3
2018-08-02T03:48:44.844Z,986.5
2018-08-02T03:49:46.021Z,986.8
2018-08-02T03:50:47.257Z,986.3
2018-08-02T03:51:48.397Z,986.6
2018-08-02T03:52:49.550Z,986.5
2018-08-02T03:53:50.749Z,986.3
2018-08-02T03:54:51.936Z,986.2
2018-08-02T03:55:53.095Z,986.7
2018-08-02T03:56:54.369Z,986.6
2018-08-02T03:57:55.548Z,986.5
2018-08-02T03:58:59.229Z,986.9
2018-08-02T04:00:00.376Z,986.7
2018-08-02T04:01:01.878Z,987
2018-08-02T04:02:03.031Z,987
2018-08-02T04:03:04.263Z,986.5
2018-08-02T04:04:05.425Z,986.6
2018-08-02T04:05:06.607Z,986.4
2018-08-02T04:06:07.841Z,986.5
2018-08-02T04:07:09.100Z,986.2
2018-08-02T04:08:10.204Z,986.3
2018-08-02T04:09:11.367Z,986.3
2018-08-02T04:10:12.587Z,986.3
2018-08-02T04:11:13.814Z,986.3
2018-08-02T04:12:14.973Z,986.3
2018-08-02T04:13:18.503Z,986.4
2018-08-02T04:14:19.837Z,986.3
2018-08-02T04:15:24.039Z,986.4
2018-08-02T04:16:25.306Z,986.3
2018-08-02T04:17:26.542Z,986.3
2018-08-02T04:18:27.723Z,986.4
2018-08-02T04:19:28.901Z,986.4
2018-08-02T04:20:30.097Z,986.4
2018-08-02T04:21:31.371Z,986.4
2018-08-02T04:22:32.535Z,986.4
2018-08-02T04:23:33.721Z,986.6
2018-08-02T04:24:34.906Z,987.1
2018-08-02T04:25:36.059Z,986.9
2018-08-02T04:26:37.294Z,986.8
2018-08-02T04:27:38.467Z,987.1
2018-08-02T04:28:39.627Z,987
2018-08-02T04:29:43.088Z,986.9
2018-08-02T04:30:44.262Z,986.5
2018-08-02T04:31:45.742Z,986.9
2018-08-02T04:32:46.934Z,987.2
2018-08-02T04:33:48.169Z,986.9
2018-08-02T04:34:49.311Z,987.3
2018-08-02T04:35:50.466Z,987.2
2018-08-02T04:36:51.655Z,987.2
2018-08-02T04:37:56.055Z,987.4
2018-08-02T04:38:57.404Z,987.5
2018-08-02T04:39:58.550Z,986.9
2018-08-02T04:40:59.709Z,986.7
2018-08-02T04:42:01.058Z,986.9
2018-08-02T04:43:02.255Z,987.2
2018-08-02T04:44:03.416Z,987.5
2018-08-02T04:45:04.593Z,987.4
2018-08-02T04:46:05.767Z,987.6
2018-08-02T04:47:09.786Z,987.6
2018-08-02T04:48:11.001Z,987.8
2018-08-02T04:49:12.305Z,987.7
2018-08-02T04:50:13.496Z,987.8
2018-08-02T04:51:14.666Z,987.9
2018-08-02T04:52:15.849Z,987.9
2018-08-02T04:53:20.011Z,987.7
2018-08-02T04:54:21.173Z,987.6
2018-08-02T04:55:22.382Z,987.7
2018-08-02T04:56:23.517Z,987.8
2018-08-02T04:57:24.751Z,987.9
2018-08-02T04:58:28.613Z,987.9
2018-08-02T04:59:32.736Z,987.9
2018-08-02T05:00:33.917Z,987.9
2018-08-02T05:01:35.078Z,987.9
2018-08-02T05:02:36.518Z,987.9
2018-08-02T05:03:37.703Z,987.8
2018-08-02T05:04:38.897Z,987.9
2018-08-02T05:05:40.072Z,987.9
2018-08-02T05:06:41.222Z,987.7
2018-08-02T05:07:42.426Z,987.7
2018-08-02T05:08:43.582Z,987.8
2018-08-02T05:09:44.778Z,987.9
2018-08-02T05:10:45.967Z,987.9
2018-08-02T05:11:47.190Z,987.9
2018-08-02T05:12:48.392Z,987.9
2018-08-02T05:13:49.582Z,988
2018-08-02T05:14:50.744Z,988.1
2018-08-02T05:15:56.127Z,988
2018-08-02T05:16:57.992Z,988
2018-08-02T05:17:59.350Z,988.1
2018-08-02T05:19:00.514Z,987.9
2018-08-02T05:20:01.675Z,988.1
2018-08-02T05:21:02.851Z,988.1
2018-08-02T05:22:04.260Z,988
2018-08-02T05:23:05.463Z,988.3
2018-08-02T05:24:06.751Z,988.3
2018-08-02T05:25:07.938Z,988.4
2018-08-02T05:26:09.119Z,988.5
2018-08-02T05:27:10.279Z,988.2
2018-08-02T05:28:15.693Z,988.3
2018-08-02T05:29:16.908Z,988.4
2018-08-02T05:30:18.058Z,988.1
2018-08-02T05:31:21.968Z,988.2
2018-08-02T05:32:23.234Z,988.1
2018-08-02T05:33:24.446Z,988.3
2018-08-02T05:34:25.894Z,988.3
2018-08-02T05:35:27.031Z,988.3
2018-08-02T05:36:28.567Z,988.4
2018-08-02T05:37:29.316Z,988.5
2018-08-02T05:38:30.566Z,988.2
2018-08-02T05:39:31.755Z,988.3
2018-08-02T05:40:32.931Z,988.1
2018-08-02T05:41:34.085Z,988.4
2018-08-02T05:42:35.322Z,988.6
2018-08-02T05:43:37.914Z,988.6
2018-08-02T05:44:42.419Z,988.7
2018-08-02T05:45:43.625Z,988.7
2018-08-02T05:46:44.786Z,988.6
2018-08-02T05:47:45.999Z,988.6
2018-08-02T05:48:47.335Z,989
2018-08-02T05:49:48.588Z,988.9
2018-08-02T05:50:49.759Z,988.9
2018-08-02T05:51:51.059Z,988.7
2018-08-02T05:52:52.290Z,988.6
2018-08-02T05:53:53.504Z,988.8
2018-08-02T05:54:54.766Z,989.3
2018-08-02T05:55:55.994Z,989.1
2018-08-02T05:56:57.295Z,988.4
2018-08-02T05:57:58.790Z,988.2
2018-08-02T05:59:00.261Z,987.9
2018-08-02T06:00:01.439Z,988.5
2018-08-02T06:01:02.586Z,988.9
2018-08-02T06:02:03.745Z,989.4
2018-08-02T06:03:04.959Z,988.6
2018-08-02T06:04:06.273Z,988.9
2018-08-02T06:05:07.594Z,988.9
2018-08-02T06:06:09.077Z,988.9
2018-08-02T06:07:10.274Z,988.6
2018-08-02T06:08:11.545Z,989
2018-08-02T06:09:12.713Z,989.2
2018-08-02T06:10:13.926Z,989
2018-08-02T06:11:15.078Z,988.7
2018-08-02T06:12:16.287Z,988.8
2018-08-02T06:13:18.683Z,988.5
2018-08-02T06:14:19.953Z,989.2
2018-08-02T06:15:21.395Z,989.3
2018-08-02T06:16:25.678Z,988.9
2018-08-02T06:17:26.850Z,988.9
2018-08-02T06:18:28.085Z,988.7
2018-08-02T06:19:29.526Z,989.3
2018-08-02T06:20:30.772Z,989.2
2018-08-02T06:21:31.941Z,989.4
2018-08-02T06:22:33.410Z,989.5
2018-08-02T06:23:34.728Z,989
2018-08-02T06:24:35.950Z,989.1
2018-08-02T06:25:37.165Z,988.9
2018-08-02T06:26:38.343Z,989.4
2018-08-02T06:27:39.570Z,989.5
2018-08-02T06:28:42.966Z,989.7
2018-08-02T06:29:47.258Z,988.9
2018-08-02T06:30:48.411Z,989.2
2018-08-02T06:31:49.634Z,989
2018-08-02T06:32:50.806Z,989.2
2018-08-02T06:33:52.053Z,988.5
2018-08-02T06:34:53.447Z,988.8
2018-08-02T06:35:54.698Z,989.1
2018-08-02T06:36:55.904Z,988.9
2018-08-02T06:37:57.183Z,988.8
2018-08-02T06:38:58.420Z,988.6
2018-08-02T06:39:59.658Z,989
2018-08-02T06:41:00.886Z,988.9
2018-08-02T06:42:02.103Z,989
2018-08-02T06:43:11.482Z,988.7
2018-08-02T06:44:12.730Z,989
2018-08-02T06:45:13.934Z,989
2018-08-02T06:46:30.890Z,989
2018-08-02T06:47:32.083Z,989.2
2018-08-02T06:48:35.763Z,988.7
2018-08-02T06:49:36.965Z,989.2
2018-08-02T06:50:40.454Z,988.8
2018-08-02T06:51:48.973Z,988.7
2018-08-02T06:52:56.190Z,988.4
2018-08-02T06:53:57.441Z,988.3
2018-08-02T06:54:58.684Z,988.6
2018-08-02T06:56:00.630Z,987.7
2018-08-02T06:57:01.846Z,988.5
2018-08-02T06:58:03.065Z,988.8
2018-08-02T06:59:04.465Z,988.5
2018-08-02T07:00:05.684Z,988.7
2018-08-02T07:01:06.945Z,988.3
2018-08-02T07:02:08.282Z,988.8
2018-08-02T07:03:09.493Z,989.2
2018-08-02T07:04:10.754Z,988.9
2018-08-02T07:05:12.761Z,988.5
2018-08-02T07:06:20.662Z,987.8
2018-08-02T07:07:21.833Z,988.1
2018-08-02T07:08:23.042Z,988.1
2018-08-02T07:09:26.010Z,988.3
2018-08-02T07:10:27.204Z,987.8
2018-08-02T07:11:28.570Z,988.1
2018-08-02T07:12:29.788Z,988.8
2018-08-02T07:13:31.790Z,989.5
2018-08-02T07:14:32.982Z,989.6
2018-08-02T07:15:34.209Z,989.3
2018-08-02T07:16:41.411Z,987.9
2018-08-02T07:17:42.617Z,988.8
2018-08-02T07:18:43.843Z,988.1
2018-08-02T07:19:45.013Z,987.8
2018-08-02T07:20:48.612Z,988.2
2018-08-02T07:21:50.178Z,988
2018-08-02T07:22:51.738Z,987.6
2018-08-02T07:23:52.923Z,987.7
2018-08-02T07:24:56.870Z,988.1
2018-08-02T07:25:58.195Z,988
2018-08-02T07:26:59.491Z,988.8
2018-08-02T07:28:00.689Z,988.1
2018-08-02T07:29:02.177Z,987.9
2018-08-02T07:30:03.354Z,988.5
2018-08-02T07:31:04.734Z,988.3
2018-08-02T07:32:06.068Z,988.8
2018-08-02T07:33:07.214Z,989.4
2018-08-02T07:34:08.558Z,989.3
2018-08-02T07:35:09.714Z,989.3
2018-08-02T07:36:10.991Z,988.3
2018-08-02T07:37:14.142Z,989.3
2018-08-02T07:38:15.359Z,988.8
2018-08-02T07:39:17.685Z,988.6
2018-08-02T07:40:18.944Z,988.3
2018-08-02T07:41:20.157Z,989.2
2018-08-02T07:42:21.805Z,988.7
2018-08-02T07:43:25.585Z,988.1
2018-08-02T07:44:29.267Z,988.6
2018-08-02T07:45:31.647Z,988.5
2018-08-02T07:46:37.768Z,988.9
2018-08-02T07:47:43.959Z,987.8
2018-08-02T07:48:47.379Z,988.2
2018-08-02T07:49:48.566Z,988.8
2018-08-02T07:50:49.736Z,989.1
2018-08-02T07:51:53.286Z,988.2
2018-08-02T07:52:55.844Z,988.4
2018-08-02T07:53:59.458Z,988.7
2018-08-02T07:55:00.680Z,988.4
2018-08-02T07:56:01.939Z,989.1
2018-08-02T07:57:06.263Z,989.3
2018-08-02T07:58:07.821Z,988.7
2018-08-02T07:59:09.010Z,987.9
2018-08-02T08:00:10.229Z,987.8
2018-08-02T08:01:11.445Z,988
2018-08-02T08:02:13.952Z,988
2018-08-02T08:03:15.842Z,988.8
2018-08-02T08:04:17.359Z,989.2
2018-08-02T08:05:18.558Z,988.8
2018-08-02T08:06:25.069Z,989.2
2018-08-02T08:07:26.555Z,988.7
2018-08-02T08:08:27.827Z,989
2018-08-02T08:09:29.303Z,989.4
2018-08-02T08:10:30.593Z,988.9
2018-08-02T08:11:34.096Z,988.7
2018-08-02T08:12:35.442Z,988.1
2018-08-02T08:13:39.549Z,987.5
2018-08-02T08:14:41.188Z,987.5
2018-08-02T08:15:42.393Z,987.5
2018-08-02T08:16:43.645Z,987.5
2018-08-02T08:17:44.858Z,987.6
2018-08-02T08:18:48.548Z,987.6
2018-08-02T08:19:49.742Z,987.6
2018-08-02T08:20:51.110Z,987.8
2018-08-02T08:21:52.299Z,987.7
2018-08-02T08:22:53.559Z,987.9
2018-08-02T08:23:57.211Z,987.9
2018-08-02T08:24:58.644Z,987.9
2018-08-02T08:26:00.038Z,988.1
2018-08-02T08:27:04.197Z,988
2018-08-02T08:28:08.019Z,988.1
2018-08-02T08:29:09.357Z,988
2018-08-02T08:30:10.599Z,988
2018-08-02T08:31:13.103Z,988
2018-08-02T08:32:14.374Z,987.8
2018-08-02T08:33:15.686Z,987.8
2018-08-02T08:34:17.251Z,987.9
2018-08-02T08:35:18.739Z,988
2018-08-02T08:36:25.290Z,988.5
2018-08-02T08:37:28.862Z,988
2018-08-02T08:38:32.436Z,987.9
2018-08-02T08:39:33.974Z,988.2
2018-08-02T08:40:35.554Z,987.8
2018-08-02T08:41:39.261Z,988.2
2018-08-02T08:42:40.749Z,987.7
2018-08-02T08:43:42.015Z,987.8
2018-08-02T08:44:43.518Z,987.9
2018-08-02T08:45:44.705Z,988.5
2018-08-02T08:46:46.593Z,987.9
2018-08-02T08:47:47.946Z,987.8
2018-08-02T08:48:49.215Z,987.7
2018-08-02T08:49:52.270Z,987.6
2018-08-02T08:50:53.534Z,987.7
2018-08-02T08:51:58.224Z,987.9
2018-08-02T08:52:59.504Z,987.9
2018-08-02T08:54:00.811Z,988.1
2018-08-02T08:55:07.451Z,988
2018-08-02T08:56:08.796Z,987.9
2018-08-02T08:57:10.261Z,987.9
2018-08-02T08:58:11.517Z,987.8
2018-08-02T08:59:15.197Z,988
2018-08-02T09:00:16.550Z,987.9
2018-08-02T09:01:17.756Z,987.9
2018-08-02T09:02:19.291Z,987.9
2018-08-02T09:03:22.518Z,987.9
2018-08-02T09:04:23.722Z,987.7
2018-08-02T09:05:25.173Z,987.8
2018-08-02T09:06:26.376Z,987.8
2018-08-02T09:07:37.877Z,987.8
2018-08-02T09:08:39.192Z,987.8
2018-08-02T09:09:40.392Z,987.8
2018-08-02T09:10:46.862Z,987.8
2018-08-02T09:11:54.155Z,987.8
2018-08-02T09:12:55.386Z,987.7
2018-08-02T09:13:56.813Z,987.8
2018-08-02T09:15:02.386Z,987.8
2018-08-02T09:16:04.234Z,987.7
2018-08-02T09:17:05.490Z,987.7
2018-08-02T09:18:06.705Z,987.8
2018-08-02T09:19:13.669Z,987.7
2018-08-02T09:20:16.772Z,987.7
2018-08-02T09:21:18.121Z,987.8
2018-08-02T09:22:22.468Z,987.8
2018-08-02T09:23:38.721Z,987.7
2018-08-02T09:24:41.960Z,987.7
2018-08-02T09:25:43.282Z,987.7
2018-08-02T09:26:46.799Z,987.7
2018-08-02T09:27:53.947Z,987.8
2018-08-02T09:28:57.901Z,987.8
2018-08-02T09:29:59.267Z,987.7
2018-08-02T09:31:00.590Z,987.8
2018-08-02T09:32:02.255Z,987.7
2018-08-02T09:33:03.474Z,987.7
2018-08-02T09:34:04.641Z,987.7
2018-08-02T09:35:05.813Z,987.7
2018-08-02T09:36:08.563Z,987.7
2018-08-02T09:37:13.664Z,987.7
2018-08-02T09:38:25.272Z,987.7
2018-08-02T09:39:26.491Z,987.5
2018-08-02T09:40:30.570Z,987.5
2018-08-02T09:41:31.765Z,987.6
2018-08-02T09:42:33.374Z,987.6
2018-08-02T09:43:34.666Z,987.8
2018-08-02T09:44:38.710Z,987.7
2018-08-02T09:45:39.902Z,987.6
2018-08-02T09:46:49.555Z,987.7
2018-08-02T09:47:50.720Z,987.6
2018-08-02T09:48:51.971Z,987.6
2018-08-02T09:49:58.713Z,987.6
2018-08-02T09:51:00.376Z,987.7
2018-08-02T09:52:03.262Z,987.7
2018-08-02T09:53:04.566Z,987.5
2018-08-02T09:54:05.828Z,987.5
2018-08-02T09:55:08.743Z,988.2
2018-08-02T09:56:12.893Z,987.9
2018-08-02T09:57:20.939Z,987.7
2018-08-02T09:58:24.734Z,987.6
2018-08-02T09:59:26.295Z,987.8
2018-08-02T10:00:27.486Z,987.6
2018-08-02T10:01:29.102Z,987.8
2018-08-02T10:02:30.870Z,987.4
2018-08-02T10:03:34.982Z,987.2
2018-08-02T10:04:36.175Z,987.4
2018-08-02T10:05:40.347Z,987.3
2018-08-02T10:06:41.583Z,987.3
2018-08-02T10:07:42.828Z,987.3
2018-08-02T10:08:44.117Z,987.1
2018-08-02T10:09:45.379Z,987.4
2018-08-02T10:10:46.676Z,987.4
2018-08-02T10:11:48.117Z,987.1
2018-08-02T10:12:49.553Z,987.3
2018-08-02T10:13:53.513Z,987.2
2018-08-02T10:14:54.734Z,987.2
2018-08-02T10:15:57.094Z,987.4
2018-08-02T10:16:58.892Z,987.2
2018-08-02T10:18:00.190Z,987
2018-08-02T10:19:01.530Z,987.1
2018-08-02T10:20:02.717Z,987.2
2018-08-02T10:21:03.939Z,987.2
2018-08-02T10:22:05.386Z,987.3
2018-08-02T10:23:06.632Z,987.2
2018-08-02T10:24:15.539Z,987.1
2018-08-02T10:25:19.361Z,987.1
2018-08-02T10:26:24.377Z,987.1
2018-08-02T10:27:25.851Z,987
2018-08-02T10:28:27.475Z,987
2018-08-02T10:29:28.957Z,987.2
2018-08-02T10:30:30.346Z,986.8
2018-08-02T10:31:31.529Z,987
2018-08-02T10:32:32.811Z,987
2018-08-02T10:33:34.074Z,986.9
2018-08-02T10:34:40.474Z,986.9
2018-08-02T10:35:41.659Z,987
2018-08-02T10:36:42.874Z,987
2018-08-02T10:37:46.799Z,986.8
2018-08-02T10:38:48.095Z,986.8
2018-08-02T10:39:49.448Z,986.8
2018-08-02T10:40:50.695Z,986.9
2018-08-02T10:41:52.121Z,987
2018-08-02T10:42:56.002Z,987.1
2018-08-02T10:44:00.425Z,987.3
2018-08-02T10:45:04.866Z,987.1
2018-08-02T10:46:08.942Z,987
2018-08-02T10:47:12.972Z,987
2018-08-02T10:48:21.595Z,987
2018-08-02T10:49:23.124Z,986.9
2018-08-02T10:50:27.270Z,987
2018-08-02T10:51:29.767Z,986.7
2018-08-02T10:53:53.023Z,986.9
2018-08-02T10:54:54.323Z,987.1
2018-08-02T10:56:01.373Z,987
2018-08-02T10:57:03.971Z,987
2018-08-02T10:58:07.941Z,986.9
2018-08-02T10:59:09.518Z,986.9
2018-08-02T11:00:13.028Z,986.9
2018-08-02T11:01:16.681Z,986.7
2018-08-02T11:02:17.967Z,986.7
2018-08-02T11:03:19.607Z,986.8
2018-08-02T11:04:20.809Z,986.9
2018-08-02T11:05:34.068Z,986.9
2018-08-02T11:06:35.622Z,986.9
2018-08-02T11:07:36.835Z,987
2018-08-02T11:08:38.058Z,986.8
2018-08-02T11:09:39.462Z,986.9
2018-08-02T11:10:43.583Z,986.7
2018-08-02T11:11:47.435Z,986.8
2018-08-02T11:12:48.647Z,986.8
2018-08-02T11:13:51.833Z,986.8
2018-08-02T11:14:55.537Z,987
2018-08-02T11:15:56.773Z,986.9
2018-08-02T11:16:58.274Z,986.9
2018-08-02T11:17:59.813Z,986.9
2018-08-02T11:19:01.277Z,986.9
2018-08-02T11:20:04.843Z,987.1
2018-08-02T11:21:09.555Z,986.8
2018-08-02T11:22:11.351Z,986.9
2018-08-02T11:23:12.623Z,987
2018-08-02T11:24:21.258Z,986.8
2018-08-02T11:25:24.805Z,986.9
2018-08-02T11:26:26.393Z,986.9
2018-08-02T11:27:27.668Z,987
2018-08-02T11:28:28.998Z,986.9
2018-08-02T11:29:30.369Z,986.9
2018-08-02T11:30:31.638Z,986.9
2018-08-02T11:31:33.003Z,986.9
2018-08-02T11:32:34.465Z,986.8
2018-08-02T11:33:38.254Z,986.9
2018-08-02T11:34:41.480Z,986.9
2018-08-02T11:35:43.258Z,986.9
2018-08-02T11:36:45.966Z,986.9
2018-08-02T11:37:47.405Z,986.9
2018-08-02T11:38:54.286Z,986.9
2018-08-02T11:39:55.493Z,986.8
2018-08-02T11:40:56.725Z,986.8
2018-08-02T11:41:57.922Z,986.8
2018-08-02T11:42:59.286Z,986.8
2018-08-02T11:44:00.565Z,986.8
2018-08-02T11:45:01.818Z,986.8
2018-08-02T11:46:05.135Z,986.6
2018-08-02T11:47:06.402Z,986.8
2018-08-02T11:48:08.181Z,986.7
2018-08-02T11:49:09.536Z,986.6
2018-08-02T11:50:10.824Z,986.9
2018-08-02T11:51:14.358Z,987
2018-08-02T11:52:18.253Z,986.9
2018-08-02T11:53:19.626Z,986.9
2018-08-02T11:54:20.990Z,986.9
2018-08-02T11:55:24.342Z,987
2018-08-02T11:56:25.674Z,986.8
2018-08-02T11:57:29.535Z,987
2018-08-02T11:58:30.810Z,986.9
2018-08-02T11:59:34.400Z,986.9
2018-08-02T12:00:35.675Z,987
2018-08-02T12:01:36.864Z,987
2018-08-02T12:02:38.340Z,987
2018-08-02T12:03:39.726Z,986.9
2018-08-02T12:04:41.172Z,986.8
2018-08-02T12:05:42.407Z,986.8
2018-08-02T12:06:50.875Z,986.9
2018-08-02T12:07:53.175Z,986.9
2018-08-02T12:08:54.654Z,986.8
2018-08-02T12:09:55.904Z,986.8
2018-08-02T12:10:57.179Z,986.8
2018-08-02T12:11:58.455Z,987
2018-08-02T12:13:02.088Z,986.9
2018-08-02T12:14:03.374Z,986.9
2018-08-02T12:15:11.347Z,986.8
2018-08-02T12:16:12.843Z,987
2018-08-02T12:17:19.035Z,986.9
2018-08-02T12:18:24.560Z,986.7
2018-08-02T12:19:27.814Z,986.9
2018-08-02T12:20:33.975Z,986.9
2018-08-02T12:21:35.386Z,987
2018-08-02T12:22:36.618Z,987
2018-08-02T12:23:46.228Z,986.9
2018-08-02T12:24:52.502Z,986.8
2018-08-02T12:25:53.619Z,986.9
2018-08-02T12:26:59.436Z,986.9
2018-08-02T12:28:00.941Z,986.8
2018-08-02T12:29:08.089Z,986.8
2018-08-02T12:30:14.212Z,986.9
2018-08-02T12:31:15.388Z,986.8
2018-08-02T12:32:16.993Z,986.8
2018-08-02T12:33:18.401Z,986.7
2018-08-02T12:34:20.013Z,986.7
2018-08-02T12:35:21.271Z,986.9
2018-08-02T12:36:22.912Z,986.8
2018-08-02T12:37:26.509Z,986.7
2018-08-02T12:38:27.772Z,986.7
2018-08-02T12:39:29.051Z,986.6
2018-08-02T12:40:30.389Z,986.7
2018-08-02T12:41:31.558Z,986.6
2018-08-02T12:42:35.220Z,986.6
2018-08-02T12:43:36.713Z,986.4
2018-08-02T12:44:42.116Z,986.3
2018-08-02T12:48:41.113Z,986.5
2018-08-02T12:49:42.320Z,986.5
2018-08-02T12:50:43.708Z,986.5
2018-08-02T12:51:45.004Z,986.7
2018-08-02T12:52:47.608Z,986.3
2018-08-02T12:55:04.889Z,986.5
2018-08-02T12:56:06.563Z,986.6
2018-08-02T12:57:09.312Z,986.7
2018-08-02T12:58:10.827Z,986.8
2018-08-02T12:59:12.065Z,986.7
2018-08-02T13:00:13.393Z,986.7
2018-08-02T13:01:16.630Z,986.9
2018-08-02T13:02:17.901Z,986.5
2018-08-02T13:03:22.832Z,986.2
2018-08-02T13:04:24.100Z,985.9
2018-08-02T13:05:25.828Z,986.4
2018-08-02T13:06:27.021Z,986.2
2018-08-02T13:07:28.280Z,986.3
2018-08-02T13:08:29.613Z,986.7
2018-08-02T13:09:33.730Z,986.4
2018-08-02T13:10:35.203Z,986.7
2018-08-02T13:11:36.422Z,986.6
2018-08-02T13:12:41.195Z,986.5
2018-08-02T13:13:42.443Z,986.3
2018-08-02T13:14:45.934Z,986.5
2018-08-02T13:15:49.318Z,986.4
2018-08-02T13:16:50.600Z,986.7
2018-08-02T13:17:54.675Z,986.8
2018-08-02T13:18:55.974Z,986.5
2018-08-02T13:20:00.338Z,986.6
2018-08-02T13:21:11.588Z,986.4
2018-08-02T13:22:12.822Z,986.2
2018-08-02T13:23:17.065Z,986.3
2018-08-02T13:24:18.314Z,986.5
2018-08-02T13:25:26.167Z,986.7
2018-08-02T13:26:27.417Z,986.7
2018-08-02T13:27:28.763Z,986.6
2018-08-02T13:28:32.928Z,986.3
2018-08-02T13:29:37.270Z,986.2